createdAt,value
2023-01-21T00:10:13.499Z,988.9
2023-01-21T00:29:25.795Z,989.1
2023-01-21T00:48:39.919Z,989.2
2023-01-21T01:07:52.916Z,989.5
2023-01-21T01:27:05.086Z,989.9
2023-01-21T01:46:19.253Z,990.3
2023-01-21T02:05:28.915Z,990.5
2023-01-21T02:24:42.586Z,990.8
2023-01-21T02:43:56.791Z,991
2023-01-21T03:03:09.147Z,991.1
2023-01-21T03:22:23.281Z,991.3
2023-01-21T03:41:36.251Z,991.5
2023-01-21T04:00:50.842Z,991.4
2023-01-21T04:20:04.200Z,991.6
2023-01-21T04:39:18.779Z,991.8
2023-01-21T04:58:31.337Z,992
2023-01-21T05:17:44.971Z,992.2
2023-01-21T05:36:57.767Z,992.4
2023-01-21T05:56:11.435Z,992.6
2023-01-21T06:15:25.135Z,992.8
2023-01-21T06:34:38.148Z,992.9
2023-01-21T06:53:52.323Z,993.2
2023-01-21T07:13:05.444Z,993.4
2023-01-21T07:32:18.913Z,993.6
2023-01-21T07:51:32.165Z,993.6
2023-01-21T08:10:47.483Z,993.7
2023-01-21T08:30:03.700Z,993.9
2023-01-21T08:49:17.999Z,994.1
2023-01-21T09:08:31.384Z,994.2
2023-01-21T09:27:47.018Z,994.2
2023-01-21T09:47:03.783Z,994.5
2023-01-21T10:06:15.835Z,994.7
2023-01-21T10:25:31.133Z,994.9
2023-01-21T10:44:43.474Z,995
2023-01-21T11:03:57.077Z,994.9
2023-01-21T11:23:11.265Z,994.9
2023-01-21T11:42:26.224Z,994.7
2023-01-21T12:01:40.134Z,994.8
2023-01-21T12:20:55.345Z,994.7
2023-01-21T12:40:11.303Z,994.8
2023-01-21T12:59:24.649Z,994.7
2023-01-21T13:18:38.741Z,994.9
2023-01-21T13:37:52.855Z,995
2023-01-21T13:57:03.008Z,995.1
2023-01-21T14:16:16.723Z,995.3
2023-01-21T14:35:29.178Z,995.3
2023-01-21T14:54:45.145Z,995.2
2023-01-21T15:13:59.274Z,995.2
2023-01-21T15:33:12.696Z,995.3
2023-01-21T15:52:25.589Z,995.4
2023-01-21T16:11:39.053Z,995.4
2023-01-21T16:30:53.241Z,995.3
2023-01-21T16:50:03.243Z,995.4
2023-01-21T17:09:16.934Z,995.5
2023-01-21T17:28:30.784Z,995.6
2023-01-21T17:48:14.513Z,995.7
2023-01-21T18:07:07.310Z,995.8
2023-01-21T18:26:21.177Z,995.7
2023-01-21T18:45:35.529Z,995.7
2023-01-21T19:04:47.234Z,995.7
2023-01-21T19:24:01.418Z,995.6
2023-01-21T19:43:16.523Z,995.5
2023-01-21T20:02:28.688Z,995.4
2023-01-21T20:22:03.222Z,995.3
2023-01-21T20:41:01.133Z,995.3
2023-01-21T21:00:13.091Z,995
2023-01-21T21:19:27.114Z,995.2
2023-01-21T21:38:40.180Z,994.9
2023-01-21T21:57:55.902Z,995
2023-01-21T22:17:09.283Z,995.3
2023-01-21T22:36:24.995Z,995.2
2023-01-21T22:55:39.748Z,995.2
2023-01-21T23:14:55.131Z,994.8
2023-01-21T23:34:09.834Z,994.8
2023-01-21T23:53:23.651Z,994.5
